sensor_id;sensor_type;location;lat;lon;timestamp;P1;durP1;ratioP1;P2;durP2;ratioP2
10090;SDS011;5084;51.386;6.778;2024-02-21T00:00:52;19.07;;;10.33;;
10090;SDS011;5084;51.386;6.778;2024-02-21T00:03:18;17.40;;;10.70;;
10090;SDS011;5084;51.386;6.778;2024-02-21T00:05:44;19.40;;;9.77;;
10090;SDS011;5084;51.386;6.778;2024-02-21T00:08:10;16.03;;;10.03;;
10090;SDS011;5084;51.386;6.778;2024-02-21T00:10:36;14.20;;;9.50;;
10090;SDS011;5084;51.386;6.778;2024-02-21T00:13:02;17.57;;;9.63;;
10090;SDS011;5084;51.386;6.778;2024-02-21T00:15:29;21.03;;;10.63;;
10090;SDS011;5084;51.386;6.778;2024-02-21T00:17:55;17.30;;;10.23;;
10090;SDS011;5084;51.386;6.778;2024-02-21T00:20:21;16.40;;;9.63;;
10090;SDS011;5084;51.386;6.778;2024-02-21T00:22:47;14.57;;;10.03;;
10090;SDS011;5084;51.386;6.778;2024-02-21T00:25:13;16.27;;;9.40;;
10090;SDS011;5084;51.386;6.778;2024-02-21T00:27:39;17.63;;;10.77;;
10090;SDS011;5084;51.386;6.778;2024-02-21T00:30:05;15.03;;;10.07;;
10090;SDS011;5084;51.386;6.778;2024-02-21T00:32:31;19.80;;;10.80;;
10090;SDS011;5084;51.386;6.778;2024-02-21T00:34:59;17.07;;;9.70;;
10090;SDS011;5084;51.386;6.778;2024-02-21T00:37:26;26.20;;;11.83;;
10090;SDS011;5084;51.386;6.778;2024-02-21T00:39:53;19.23;;;9.67;;
10090;SDS011;5084;51.386;6.778;2024-02-21T00:42:19;17.47;;;10.47;;
10090;SDS011;5084;51.386;6.778;2024-02-21T00:44:46;21.03;;;10.50;;
10090;SDS011;5084;51.386;6.778;2024-02-21T00:47:12;15.63;;;10.63;;
10090;SDS011;5084;51.386;6.778;2024-02-21T00:49:38;17.47;;;10.33;;
10090;SDS011;5084;51.386;6.778;2024-02-21T00:52:04;14.00;;;9.53;;
10090;SDS011;5084;51.386;6.778;2024-02-21T00:54:30;21.87;;;10.93;;
10090;SDS011;5084;51.386;6.778;2024-02-21T00:56:56;17.23;;;10.43;;
10090;SDS011;5084;51.386;6.778;2024-02-21T00:59:22;22.37;;;11.33;;
10090;SDS011;5084;51.386;6.778;2024-02-21T01:01:48;19.37;;;10.57;;
10090;SDS011;5084;51.386;6.778;2024-02-21T01:04:14;20.87;;;10.20;;
10090;SDS011;5084;51.386;6.778;2024-02-21T01:06:40;18.47;;;10.23;;
10090;SDS011;5084;51.386;6.778;2024-02-21T01:09:09;18.63;;;10.23;;
10090;SDS011;5084;51.386;6.778;2024-02-21T01:11:35;16.00;;;9.97;;
10090;SDS011;5084;51.386;6.778;2024-02-21T01:14:01;15.50;;;10.73;;
10090;SDS011;5084;51.386;6.778;2024-02-21T01:16:27;18.97;;;10.00;;
10090;SDS011;5084;51.386;6.778;2024-02-21T01:18:53;13.60;;;9.53;;
10090;SDS011;5084;51.386;6.778;2024-02-21T01:21:19;18.90;;;10.40;;
10090;SDS011;5084;51.386;6.778;2024-02-21T01:23:45;14.83;;;9.47;;
10090;SDS011;5084;51.386;6.778;2024-02-21T01:26:11;16.70;;;10.17;;
10090;SDS011;5084;51.386;6.778;2024-02-21T01:28:39;20.03;;;11.10;;
10090;SDS011;5084;51.386;6.778;2024-02-21T01:31:05;15.53;;;9.73;;
10090;SDS011;5084;51.386;6.778;2024-02-21T01:33:32;14.07;;;9.67;;
10090;SDS011;5084;51.386;6.778;2024-02-21T01:36:03;17.27;;;9.27;;
10090;SDS011;5084;51.386;6.778;2024-02-21T01:38:31;16.23;;;10.03;;
10090;SDS011;5084;51.386;6.778;2024-02-21T01:40:57;16.30;;;9.70;;
10090;SDS011;5084;51.386;6.778;2024-02-21T01:43:23;18.23;;;9.77;;
10090;SDS011;5084;51.386;6.778;2024-02-21T01:45:50;17.67;;;10.57;;
10090;SDS011;5084;51.386;6.778;2024-02-21T01:48:17;17.57;;;10.37;;
10090;SDS011;5084;51.386;6.778;2024-02-21T01:50:46;12.30;;;9.83;;
10090;SDS011;5084;51.386;6.778;2024-02-21T01:53:13;12.97;;;9.17;;
10090;SDS011;5084;51.386;6.778;2024-02-21T01:55:44;15.07;;;9.80;;
10090;SDS011;5084;51.386;6.778;2024-02-21T01:58:10;17.33;;;10.60;;
10090;SDS011;5084;51.386;6.778;2024-02-21T02:00:37;13.10;;;9.67;;
10090;SDS011;5084;51.386;6.778;2024-02-21T02:03:04;16.57;;;10.30;;
10090;SDS011;5084;51.386;6.778;2024-02-21T02:05:30;18.17;;;10.50;;
10090;SDS011;5084;51.386;6.778;2024-02-21T02:07:56;14.03;;;8.53;;
10090;SDS011;5084;51.386;6.778;2024-02-21T02:10:22;15.17;;;11.07;;
10090;SDS011;5084;51.386;6.778;2024-02-21T02:12:48;15.53;;;8.87;;
10090;SDS011;5084;51.386;6.778;2024-02-21T02:15:14;20.10;;;8.97;;
10090;SDS011;5084;51.386;6.778;2024-02-21T02:17:40;14.90;;;9.20;;
10090;SDS011;5084;51.386;6.778;2024-02-21T02:20:06;20.10;;;10.37;;
10090;SDS011;5084;51.386;6.778;2024-02-21T02:22:33;13.50;;;8.33;;
10090;SDS011;5084;51.386;6.778;2024-02-21T02:24:59;18.73;;;9.23;;
10090;SDS011;5084;51.386;6.778;2024-02-21T02:27:25;16.87;;;8.70;;
10090;SDS011;5084;51.386;6.778;2024-02-21T02:29:51;19.00;;;10.67;;
10090;SDS011;5084;51.386;6.778;2024-02-21T02:32:18;14.90;;;8.73;;
10090;SDS011;5084;51.386;6.778;2024-02-21T02:34:44;20.00;;;8.33;;
10090;SDS011;5084;51.386;6.778;2024-02-21T02:37:10;18.17;;;9.27;;
10090;SDS011;5084;51.386;6.778;2024-02-21T02:39:36;15.93;;;8.93;;
10090;SDS011;5084;51.386;6.778;2024-02-21T02:42:02;14.27;;;9.17;;
10090;SDS011;5084;51.386;6.778;2024-02-21T02:44:28;13.13;;;9.30;;
10090;SDS011;5084;51.386;6.778;2024-02-21T02:46:54;16.23;;;9.23;;
10090;SDS011;5084;51.386;6.778;2024-02-21T02:49:20;16.40;;;9.03;;
10090;SDS011;5084;51.386;6.778;2024-02-21T02:51:46;12.40;;;8.53;;
10090;SDS011;5084;51.386;6.778;2024-02-21T02:54:12;12.37;;;8.53;;
10090;SDS011;5084;51.386;6.778;2024-02-21T02:56:38;14.77;;;8.63;;
10090;SDS011;5084;51.386;6.778;2024-02-21T02:59:04;16.97;;;9.23;;
10090;SDS011;5084;51.386;6.778;2024-02-21T03:01:33;14.73;;;8.57;;
10090;SDS011;5084;51.386;6.778;2024-02-21T03:03:59;17.37;;;8.50;;
10090;SDS011;5084;51.386;6.778;2024-02-21T03:06:25;16.87;;;9.03;;
10090;SDS011;5084;51.386;6.778;2024-02-21T03:08:51;12.20;;;8.27;;
10090;SDS011;5084;51.386;6.778;2024-02-21T03:11:19;10.73;;;7.10;;
10090;SDS011;5084;51.386;6.778;2024-02-21T03:13:46;14.50;;;8.47;;
10090;SDS011;5084;51.386;6.778;2024-02-21T03:16:12;11.60;;;8.37;;
10090;SDS011;5084;51.386;6.778;2024-02-21T03:18:38;18.23;;;8.93;;
10090;SDS011;5084;51.386;6.778;2024-02-21T03:21:04;14.80;;;8.10;;
10090;SDS011;5084;51.386;6.778;2024-02-21T03:23:30;15.43;;;7.40;;
10090;SDS011;5084;51.386;6.778;2024-02-21T03:25:56;12.13;;;7.67;;
10090;SDS011;5084;51.386;6.778;2024-02-21T03:28:22;15.60;;;8.47;;
10090;SDS011;5084;51.386;6.778;2024-02-21T03:30:48;16.83;;;8.83;;
10090;SDS011;5084;51.386;6.778;2024-02-21T03:33:14;16.63;;;8.33;;
10090;SDS011;5084;51.386;6.778;2024-02-21T03:35:40;15.27;;;7.83;;
10090;SDS011;5084;51.386;6.778;2024-02-21T03:38:06;11.83;;;8.40;;
10090;SDS011;5084;51.386;6.778;2024-02-21T03:40:32;12.13;;;7.90;;
10090;SDS011;5084;51.386;6.778;2024-02-21T03:42:58;12.77;;;7.87;;
10090;SDS011;5084;51.386;6.778;2024-02-21T03:45:24;12.70;;;8.43;;
10090;SDS011;5084;51.386;6.778;2024-02-21T03:47:50;12.13;;;8.33;;
10090;SDS011;5084;51.386;6.778;2024-02-21T03:50:16;14.10;;;7.97;;
10090;SDS011;5084;51.386;6.778;2024-02-21T03:52:42;13.13;;;8.60;;
10090;SDS011;5084;51.386;6.778;2024-02-21T03:55:08;16.00;;;8.53;;
10090;SDS011;5084;51.386;6.778;2024-02-21T03:57:34;12.17;;;8.10;;
10090;SDS011;5084;51.386;6.778;2024-02-21T04:00:00;15.53;;;8.17;;
10090;SDS011;5084;51.386;6.778;2024-02-21T04:02:28;10.77;;;8.00;;
10090;SDS011;5084;51.386;6.778;2024-02-21T04:04:54;13.03;;;8.37;;
10090;SDS011;5084;51.386;6.778;2024-02-21T04:07:20;14.10;;;8.03;;
10090;SDS011;5084;51.386;6.778;2024-02-21T04:09:46;13.03;;;7.43;;
10090;SDS011;5084;51.386;6.778;2024-02-21T04:12:12;13.83;;;8.07;;
10090;SDS011;5084;51.386;6.778;2024-02-21T04:14:38;14.17;;;7.53;;
10090;SDS011;5084;51.386;6.778;2024-02-21T04:17:04;15.80;;;8.97;;
10090;SDS011;5084;51.386;6.778;2024-02-21T04:19:30;12.37;;;8.43;;
10090;SDS011;5084;51.386;6.778;2024-02-21T04:21:56;18.33;;;8.37;;
10090;SDS011;5084;51.386;6.778;2024-02-21T04:24:22;16.13;;;8.50;;
10090;SDS011;5084;51.386;6.778;2024-02-21T04:26:48;12.90;;;8.20;;
10090;SDS011;5084;51.386;6.778;2024-02-21T04:29:15;11.17;;;8.07;;
10090;SDS011;5084;51.386;6.778;2024-02-21T04:31:41;16.03;;;8.57;;
10090;SDS011;5084;51.386;6.778;2024-02-21T04:34:07;12.53;;;7.30;;
10090;SDS011;5084;51.386;6.778;2024-02-21T04:36:33;10.23;;;7.17;;
10090;SDS011;5084;51.386;6.778;2024-02-21T04:38:59;13.53;;;8.47;;
10090;SDS011;5084;51.386;6.778;2024-02-21T04:41:25;10.83;;;7.30;;
10090;SDS011;5084;51.386;6.778;2024-02-21T04:43:51;15.00;;;8.03;;
10090;SDS011;5084;51.386;6.778;2024-02-21T04:46:17;9.27;;;7.30;;
10090;SDS011;5084;51.386;6.778;2024-02-21T04:48:43;11.07;;;6.90;;
10090;SDS011;5084;51.386;6.778;2024-02-21T04:51:09;13.57;;;6.90;;
10090;SDS011;5084;51.386;6.778;2024-02-21T04:53:35;10.23;;;7.37;;
10090;SDS011;5084;51.386;6.778;2024-02-21T04:56:01;11.83;;;7.80;;
10090;SDS011;5084;51.386;6.778;2024-02-21T04:58:27;14.13;;;7.43;;
10090;SDS011;5084;51.386;6.778;2024-02-21T05:00:53;14.53;;;7.00;;
10090;SDS011;5084;51.386;6.778;2024-02-21T05:03:20;9.73;;;6.93;;
10090;SDS011;5084;51.386;6.778;2024-02-21T05:05:46;13.10;;;6.97;;
10090;SDS011;5084;51.386;6.778;2024-02-21T05:08:12;11.47;;;7.30;;
10090;SDS011;5084;51.386;6.778;2024-02-21T05:10:38;10.30;;;6.67;;
10090;SDS011;5084;51.386;6.778;2024-02-21T05:13:04;10.67;;;7.50;;
10090;SDS011;5084;51.386;6.778;2024-02-21T05:15:30;12.87;;;7.27;;
10090;SDS011;5084;51.386;6.778;2024-02-21T05:17:56;13.27;;;7.57;;
10090;SDS011;5084;51.386;6.778;2024-02-21T05:20:22;11.03;;;6.87;;
10090;SDS011;5084;51.386;6.778;2024-02-21T05:22:48;10.87;;;7.07;;
10090;SDS011;5084;51.386;6.778;2024-02-21T05:25:14;12.53;;;6.87;;
10090;SDS011;5084;51.386;6.778;2024-02-21T05:27:40;12.03;;;6.47;;
10090;SDS011;5084;51.386;6.778;2024-02-21T05:30:06;10.83;;;6.43;;
10090;SDS011;5084;51.386;6.778;2024-02-21T05:32:33;7.77;;;6.33;;
10090;SDS011;5084;51.386;6.778;2024-02-21T05:34:59;14.40;;;6.73;;
10090;SDS011;5084;51.386;6.778;2024-02-21T05:37:25;10.73;;;6.13;;
10090;SDS011;5084;51.386;6.778;2024-02-21T05:39:51;11.77;;;6.23;;
10090;SDS011;5084;51.386;6.778;2024-02-21T05:42:17;10.07;;;6.30;;
10090;SDS011;5084;51.386;6.778;2024-02-21T05:44:43;12.67;;;6.97;;
10090;SDS011;5084;51.386;6.778;2024-02-21T05:47:09;10.43;;;6.07;;
10090;SDS011;5084;51.386;6.778;2024-02-21T05:49:37;8.80;;;5.60;;
10090;SDS011;5084;51.386;6.778;2024-02-21T05:52:03;11.03;;;6.03;;
10090;SDS011;5084;51.386;6.778;2024-02-21T05:54:30;9.57;;;5.97;;
10090;SDS011;5084;51.386;6.778;2024-02-21T05:56:57;10.67;;;5.90;;
10090;SDS011;5084;51.386;6.778;2024-02-21T05:59:23;10.10;;;5.63;;
10090;SDS011;5084;51.386;6.778;2024-02-21T06:01:56;12.30;;;5.80;;
10090;SDS011;5084;51.386;6.778;2024-02-21T06:04:22;9.07;;;5.67;;
10090;SDS011;5084;51.386;6.778;2024-02-21T06:06:48;12.67;;;6.33;;
10090;SDS011;5084;51.386;6.778;2024-02-21T06:09:14;8.17;;;5.93;;
10090;SDS011;5084;51.386;6.778;2024-02-21T06:11:40;11.23;;;5.80;;
10090;SDS011;5084;51.386;6.778;2024-02-21T06:14:07;11.73;;;6.90;;
10090;SDS011;5084;51.386;6.778;2024-02-21T06:16:33;8.00;;;6.20;;
10090;SDS011;5084;51.386;6.778;2024-02-21T06:18:59;9.77;;;5.63;;
10090;SDS011;5084;51.386;6.778;2024-02-21T06:21:28;13.00;;;6.63;;
10090;SDS011;5084;51.386;6.778;2024-02-21T06:23:54;10.03;;;5.93;;
10090;SDS011;5084;51.386;6.778;2024-02-21T06:26:20;10.70;;;5.87;;
10090;SDS011;5084;51.386;6.778;2024-02-21T06:28:46;13.10;;;6.03;;
10090;SDS011;5084;51.386;6.778;2024-02-21T06:31:13;9.03;;;5.73;;
10090;SDS011;5084;51.386;6.778;2024-02-21T06:33:40;10.93;;;6.30;;
10090;SDS011;5084;51.386;6.778;2024-02-21T06:36:06;9.27;;;6.37;;
10090;SDS011;5084;51.386;6.778;2024-02-21T06:38:32;8.17;;;6.07;;
10090;SDS011;5084;51.386;6.778;2024-02-21T06:40:59;11.40;;;6.50;;
10090;SDS011;5084;51.386;6.778;2024-02-21T06:43:27;9.20;;;5.87;;
10090;SDS011;5084;51.386;6.778;2024-02-21T06:45:53;14.17;;;5.67;;
10090;SDS011;5084;51.386;6.778;2024-02-21T06:48:20;10.43;;;5.50;;
10090;SDS011;5084;51.386;6.778;2024-02-21T06:50:46;8.07;;;5.93;;
10090;SDS011;5084;51.386;6.778;2024-02-21T06:53:12;12.20;;;5.57;;
10090;SDS011;5084;51.386;6.778;2024-02-21T06:55:38;9.47;;;6.43;;
10090;SDS011;5084;51.386;6.778;2024-02-21T06:58:04;7.33;;;5.30;;
10090;SDS011;5084;51.386;6.778;2024-02-21T07:00:30;9.17;;;5.83;;
10090;SDS011;5084;51.386;6.778;2024-02-21T07:02:56;11.17;;;6.10;;
10090;SDS011;5084;51.386;6.778;2024-02-21T07:05:23;7.27;;;5.10;;
10090;SDS011;5084;51.386;6.778;2024-02-21T07:07:49;9.70;;;5.80;;
10090;SDS011;5084;51.386;6.778;2024-02-21T07:10:15;8.30;;;5.90;;
10090;SDS011;5084;51.386;6.778;2024-02-21T07:12:41;8.47;;;5.43;;
10090;SDS011;5084;51.386;6.778;2024-02-21T07:15:08;10.23;;;6.27;;
10090;SDS011;5084;51.386;6.778;2024-02-21T07:17:34;9.57;;;5.13;;
10090;SDS011;5084;51.386;6.778;2024-02-21T07:20:00;9.63;;;5.40;;
10090;SDS011;5084;51.386;6.778;2024-02-21T07:22:27;10.77;;;6.40;;
10090;SDS011;5084;51.386;6.778;2024-02-21T07:24:53;8.20;;;5.20;;
10090;SDS011;5084;51.386;6.778;2024-02-21T07:27:19;11.23;;;5.67;;
10090;SDS011;5084;51.386;6.778;2024-02-21T07:29:45;8.33;;;5.23;;
10090;SDS011;5084;51.386;6.778;2024-02-21T07:32:13;7.80;;;5.27;;
10090;SDS011;5084;51.386;6.778;2024-02-21T07:34:39;12.80;;;6.50;;
10090;SDS011;5084;51.386;6.778;2024-02-21T07:37:05;8.90;;;5.43;;
10090;SDS011;5084;51.386;6.778;2024-02-21T07:39:31;9.07;;;5.30;;
10090;SDS011;5084;51.386;6.778;2024-02-21T07:42:01;9.30;;;5.10;;
10090;SDS011;5084;51.386;6.778;2024-02-21T07:44:27;9.20;;;5.70;;
10090;SDS011;5084;51.386;6.778;2024-02-21T07:46:53;6.70;;;5.00;;
10090;SDS011;5084;51.386;6.778;2024-02-21T07:49:19;8.13;;;4.93;;
10090;SDS011;5084;51.386;6.778;2024-02-21T07:51:45;8.20;;;4.67;;
10090;SDS011;5084;51.386;6.778;2024-02-21T07:54:11;6.53;;;4.53;;
10090;SDS011;5084;51.386;6.778;2024-02-21T07:56:37;8.17;;;5.73;;
10090;SDS011;5084;51.386;6.778;2024-02-21T07:59:03;8.70;;;5.60;;
10090;SDS011;5084;51.386;6.778;2024-02-21T08:01:29;8.30;;;5.10;;
10090;SDS011;5084;51.386;6.778;2024-02-21T08:03:55;4.67;;;4.17;;
10090;SDS011;5084;51.386;6.778;2024-02-21T08:06:21;7.47;;;5.00;;
10090;SDS011;5084;51.386;6.778;2024-02-21T08:08:48;7.70;;;4.93;;
10090;SDS011;5084;51.386;6.778;2024-02-21T08:11:14;9.33;;;4.83;;
10090;SDS011;5084;51.386;6.778;2024-02-21T08:13:40;6.37;;;4.73;;
10090;SDS011;5084;51.386;6.778;2024-02-21T08:16:06;5.50;;;4.70;;
10090;SDS011;5084;51.386;6.778;2024-02-21T08:18:32;7.07;;;4.23;;
10090;SDS011;5084;51.386;6.778;2024-02-21T08:21:01;8.37;;;4.70;;
10090;SDS011;5084;51.386;6.778;2024-02-21T08:23:27;8.40;;;4.80;;
10090;SDS011;5084;51.386;6.778;2024-02-21T08:25:53;7.83;;;4.10;;
10090;SDS011;5084;51.386;6.778;2024-02-21T08:28:19;7.20;;;4.20;;
10090;SDS011;5084;51.386;6.778;2024-02-21T08:30:45;8.50;;;4.60;;
10090;SDS011;5084;51.386;6.778;2024-02-21T08:33:15;10.80;;;4.93;;
10090;SDS011;5084;51.386;6.778;2024-02-21T08:35:46;18.80;;;5.73;;
10090;SDS011;5084;51.386;6.778;2024-02-21T08:38:12;7.03;;;4.57;;
10090;SDS011;5084;51.386;6.778;2024-02-21T08:40:38;8.57;;;4.50;;
10090;SDS011;5084;51.386;6.778;2024-02-21T08:43:04;8.83;;;4.40;;
10090;SDS011;5084;51.386;6.778;2024-02-21T08:45:30;6.73;;;4.63;;
10090;SDS011;5084;51.386;6.778;2024-02-21T08:47:56;7.13;;;3.63;;
10090;SDS011;5084;51.386;6.778;2024-02-21T08:50:22;7.57;;;4.77;;
10090;SDS011;5084;51.386;6.778;2024-02-21T08:52:48;9.10;;;4.30;;
10090;SDS011;5084;51.386;6.778;2024-02-21T08:55:14;28.63;;;5.10;;
10090;SDS011;5084;51.386;6.778;2024-02-21T08:57:40;6.67;;;4.30;;
10090;SDS011;5084;51.386;6.778;2024-02-21T09:00:07;8.17;;;4.10;;
10090;SDS011;5084;51.386;6.778;2024-02-21T09:02:39;13.13;;;4.53;;
10090;SDS011;5084;51.386;6.778;2024-02-21T09:05:07;8.33;;;4.20;;
10090;SDS011;5084;51.386;6.778;2024-02-21T09:07:33;9.53;;;4.33;;
10090;SDS011;5084;51.386;6.778;2024-02-21T09:10:02;6.37;;;4.70;;
10090;SDS011;5084;51.386;6.778;2024-02-21T09:12:28;8.67;;;4.70;;
10090;SDS011;5084;51.386;6.778;2024-02-21T09:14:55;7.03;;;3.90;;
10090;SDS011;5084;51.386;6.778;2024-02-21T09:17:21;8.33;;;4.30;;
10090;SDS011;5084;51.386;6.778;2024-02-21T09:19:47;7.67;;;4.10;;
10090;SDS011;5084;51.386;6.778;2024-02-21T09:22:13;9.07;;;5.10;;
10090;SDS011;5084;51.386;6.778;2024-02-21T09:24:39;7.63;;;4.70;;
10090;SDS011;5084;51.386;6.778;2024-02-21T09:27:05;6.17;;;3.43;;
10090;SDS011;5084;51.386;6.778;2024-02-21T09:29:31;6.30;;;3.97;;
10090;SDS011;5084;51.386;6.778;2024-02-21T09:32:01;9.50;;;4.50;;
10090;SDS011;5084;51.386;6.778;2024-02-21T09:34:27;4.57;;;3.40;;
10090;SDS011;5084;51.386;6.778;2024-02-21T09:36:53;6.80;;;3.93;;
10090;SDS011;5084;51.386;6.778;2024-02-21T09:39:19;8.07;;;4.40;;
10090;SDS011;5084;51.386;6.778;2024-02-21T09:41:48;5.20;;;3.70;;
10090;SDS011;5084;51.386;6.778;2024-02-21T09:44:22;6.13;;;3.47;;
10090;SDS011;5084;51.386;6.778;2024-02-21T09:46:52;7.33;;;3.47;;
10090;SDS011;5084;51.386;6.778;2024-02-21T09:49:31;9.53;;;4.37;;
10090;SDS011;5084;51.386;6.778;2024-02-21T09:51:58;5.80;;;3.83;;
10090;SDS011;5084;51.386;6.778;2024-02-21T09:54:25;7.50;;;3.53;;
10090;SDS011;5084;51.386;6.778;2024-02-21T09:56:53;7.63;;;3.57;;
10090;SDS011;5084;51.386;6.778;2024-02-21T09:59:19;8.97;;;3.97;;
10090;SDS011;5084;51.386;6.778;2024-02-21T10:01:45;5.03;;;3.87;;
10090;SDS011;5084;51.386;6.778;2024-02-21T10:04:12;5.20;;;3.10;;
10090;SDS011;5084;51.386;6.778;2024-02-21T10:06:38;7.57;;;3.57;;
10090;SDS011;5084;51.386;6.778;2024-02-21T10:09:05;4.60;;;3.47;;
10090;SDS011;5084;51.386;6.778;2024-02-21T10:11:31;6.10;;;4.47;;
10090;SDS011;5084;51.386;6.778;2024-02-21T10:14:06;5.73;;;3.30;;
10090;SDS011;5084;51.386;6.778;2024-02-21T10:16:32;7.73;;;3.77;;
10090;SDS011;5084;51.386;6.778;2024-02-21T10:18:58;6.83;;;3.70;;
10090;SDS011;5084;51.386;6.778;2024-02-21T10:21:25;5.33;;;3.23;;
10090;SDS011;5084;51.386;6.778;2024-02-21T10:23:51;10.67;;;3.90;;
10090;SDS011;5084;51.386;6.778;2024-02-21T10:26:18;6.20;;;3.70;;
10090;SDS011;5084;51.386;6.778;2024-02-21T10:28:44;6.80;;;3.30;;
10090;SDS011;5084;51.386;6.778;2024-02-21T10:31:20;8.27;;;3.57;;
10090;SDS011;5084;51.386;6.778;2024-02-21T10:33:57;6.70;;;3.50;;
10090;SDS011;5084;51.386;6.778;2024-02-21T10:36:23;7.63;;;3.70;;
10090;SDS011;5084;51.386;6.778;2024-02-21T10:38:50;7.43;;;3.67;;
10090;SDS011;5084;51.386;6.778;2024-02-21T10:41:16;8.63;;;3.70;;
10090;SDS011;5084;51.386;6.778;2024-02-21T10:43:46;5.73;;;3.13;;
10090;SDS011;5084;51.386;6.778;2024-02-21T10:46:14;6.80;;;3.73;;
10090;SDS011;5084;51.386;6.778;2024-02-21T10:48:44;7.83;;;3.27;;
10090;SDS011;5084;51.386;6.778;2024-02-21T10:58:53;7.37;;;3.27;;
10090;SDS011;5084;51.386;6.778;2024-02-21T11:01:22;5.73;;;3.77;;
10090;SDS011;5084;51.386;6.778;2024-02-21T11:03:52;6.10;;;3.60;;
10090;SDS011;5084;51.386;6.778;2024-02-21T11:06:19;5.30;;;2.93;;
10090;SDS011;5084;51.386;6.778;2024-02-21T11:08:46;5.53;;;3.50;;
10090;SDS011;5084;51.386;6.778;2024-02-21T11:11:14;5.70;;;3.33;;
10090;SDS011;5084;51.386;6.778;2024-02-21T11:13:45;4.60;;;3.43;;
10090;SDS011;5084;51.386;6.778;2024-02-21T11:16:20;3.83;;;3.00;;
10090;SDS011;5084;51.386;6.778;2024-02-21T11:18:47;5.73;;;3.57;;
10090;SDS011;5084;51.386;6.778;2024-02-21T11:21:13;6.37;;;3.40;;
10090;SDS011;5084;51.386;6.778;2024-02-21T11:23:39;3.97;;;2.60;;
10090;SDS011;5084;51.386;6.778;2024-02-21T11:28:31;7.67;;;3.60;;
10090;SDS011;5084;51.386;6.778;2024-02-21T11:31:13;5.80;;;2.83;;
10090;SDS011;5084;51.386;6.778;2024-02-21T11:33:42;6.13;;;2.97;;
10090;SDS011;5084;51.386;6.778;2024-02-21T11:36:11;5.10;;;4.00;;
10090;SDS011;5084;51.386;6.778;2024-02-21T11:38:48;6.77;;;3.27;;
10090;SDS011;5084;51.386;6.778;2024-02-21T11:41:14;5.83;;;3.40;;
10090;SDS011;5084;51.386;6.778;2024-02-21T11:43:40;8.10;;;3.43;;
10090;SDS011;5084;51.386;6.778;2024-02-21T11:46:06;8.93;;;4.17;;
10090;SDS011;5084;51.386;6.778;2024-02-21T11:48:32;5.50;;;2.90;;
10090;SDS011;5084;51.386;6.778;2024-02-21T11:50:58;3.97;;;2.80;;
10090;SDS011;5084;51.386;6.778;2024-02-21T11:53:25;4.43;;;2.90;;
10090;SDS011;5084;51.386;6.778;2024-02-21T11:55:55;6.63;;;3.57;;
10090;SDS011;5084;51.386;6.778;2024-02-21T11:58:22;5.90;;;3.07;;
10090;SDS011;5084;51.386;6.778;2024-02-21T12:00:48;5.83;;;3.03;;
10090;SDS011;5084;51.386;6.778;2024-02-21T12:03:14;6.00;;;3.53;;
10090;SDS011;5084;51.386;6.778;2024-02-21T12:05:41;9.93;;;4.00;;
10090;SDS011;5084;51.386;6.778;2024-02-21T12:08:07;4.93;;;3.13;;
10090;SDS011;5084;51.386;6.778;2024-02-21T12:10:34;7.30;;;3.37;;
10090;SDS011;5084;51.386;6.778;2024-02-21T12:13:07;6.87;;;3.60;;
10090;SDS011;5084;51.386;6.778;2024-02-21T12:15:33;9.43;;;3.77;;
10090;SDS011;5084;51.386;6.778;2024-02-21T12:17:59;6.37;;;3.73;;
10090;SDS011;5084;51.386;6.778;2024-02-21T12:20:25;6.27;;;3.50;;
10090;SDS011;5084;51.386;6.778;2024-02-21T12:22:52;5.40;;;3.77;;
10090;SDS011;5084;51.386;6.778;2024-02-21T12:25:19;7.50;;;3.40;;
10090;SDS011;5084;51.386;6.778;2024-02-21T12:27:51;6.50;;;3.33;;
10090;SDS011;5084;51.386;6.778;2024-02-21T12:30:17;4.43;;;3.03;;
10090;SDS011;5084;51.386;6.778;2024-02-21T12:32:44;9.13;;;3.57;;
10090;SDS011;5084;51.386;6.778;2024-02-21T12:35:10;10.13;;;3.53;;
10090;SDS011;5084;51.386;6.778;2024-02-21T12:37:36;8.53;;;3.20;;
10090;SDS011;5084;51.386;6.778;2024-02-21T12:40:03;9.00;;;3.70;;
10090;SDS011;5084;51.386;6.778;2024-02-21T12:42:31;5.23;;;3.00;;
10090;SDS011;5084;51.386;6.778;2024-02-21T12:44:58;5.57;;;3.40;;
10090;SDS011;5084;51.386;6.778;2024-02-21T12:47:24;4.70;;;3.23;;
10090;SDS011;5084;51.386;6.778;2024-02-21T12:49:51;6.10;;;3.40;;
10090;SDS011;5084;51.386;6.778;2024-02-21T12:52:18;5.67;;;2.93;;
10090;SDS011;5084;51.386;6.778;2024-02-21T12:54:44;5.07;;;3.00;;
10090;SDS011;5084;51.386;6.778;2024-02-21T12:57:10;5.30;;;3.20;;
10090;SDS011;5084;51.386;6.778;2024-02-21T12:59:36;7.90;;;3.63;;
10090;SDS011;5084;51.386;6.778;2024-02-21T13:02:02;5.10;;;2.80;;
10090;SDS011;5084;51.386;6.778;2024-02-21T13:04:28;7.17;;;3.33;;
10090;SDS011;5084;51.386;6.778;2024-02-21T13:06:54;7.80;;;3.37;;
10090;SDS011;5084;51.386;6.778;2024-02-21T13:09:23;4.17;;;2.97;;
10090;SDS011;5084;51.386;6.778;2024-02-21T13:11:49;5.53;;;2.97;;
10090;SDS011;5084;51.386;6.778;2024-02-21T13:14:16;4.93;;;2.80;;
10090;SDS011;5084;51.386;6.778;2024-02-21T13:16:42;5.73;;;2.80;;
10090;SDS011;5084;51.386;6.778;2024-02-21T13:19:08;5.07;;;2.60;;
10090;SDS011;5084;51.386;6.778;2024-02-21T13:21:35;8.03;;;3.60;;
10090;SDS011;5084;51.386;6.778;2024-02-21T13:24:01;5.17;;;2.73;;
10090;SDS011;5084;51.386;6.778;2024-02-21T13:26:27;4.57;;;2.70;;
10090;SDS011;5084;51.386;6.778;2024-02-21T13:28:53;6.60;;;2.97;;
10090;SDS011;5084;51.386;6.778;2024-02-21T13:31:19;6.63;;;2.93;;
10090;SDS011;5084;51.386;6.778;2024-02-21T13:33:46;4.80;;;2.50;;
10090;SDS011;5084;51.386;6.778;2024-02-21T13:36:12;4.70;;;2.60;;
10090;SDS011;5084;51.386;6.778;2024-02-21T13:38:38;5.77;;;3.43;;
10090;SDS011;5084;51.386;6.778;2024-02-21T13:41:07;6.50;;;2.70;;
10090;SDS011;5084;51.386;6.778;2024-02-21T13:43:33;5.70;;;3.23;;
10090;SDS011;5084;51.386;6.778;2024-02-21T13:46:00;5.67;;;2.47;;
10090;SDS011;5084;51.386;6.778;2024-02-21T13:48:34;4.87;;;3.17;;
10090;SDS011;5084;51.386;6.778;2024-02-21T13:51:00;4.33;;;2.93;;
10090;SDS011;5084;51.386;6.778;2024-02-21T13:53:27;4.63;;;2.90;;
10090;SDS011;5084;51.386;6.778;2024-02-21T13:55:53;4.37;;;2.93;;
10090;SDS011;5084;51.386;6.778;2024-02-21T13:58:19;5.63;;;2.77;;
10090;SDS011;5084;51.386;6.778;2024-02-21T14:00:46;11.70;;;3.87;;
10090;SDS011;5084;51.386;6.778;2024-02-21T14:03:12;5.70;;;3.17;;
10090;SDS011;5084;51.386;6.778;2024-02-21T14:05:38;7.33;;;2.80;;
10090;SDS011;5084;51.386;6.778;2024-02-21T14:08:05;6.37;;;3.30;;
10090;SDS011;5084;51.386;6.778;2024-02-21T14:10:31;7.57;;;3.07;;
10090;SDS011;5084;51.386;6.778;2024-02-21T14:12:58;4.13;;;2.77;;
10090;SDS011;5084;51.386;6.778;2024-02-21T14:15:25;6.50;;;3.40;;
10090;SDS011;5084;51.386;6.778;2024-02-21T14:17:51;4.73;;;2.87;;
10090;SDS011;5084;51.386;6.778;2024-02-21T14:20:17;6.87;;;3.17;;
10090;SDS011;5084;51.386;6.778;2024-02-21T14:22:43;4.53;;;3.00;;
10090;SDS011;5084;51.386;6.778;2024-02-21T14:25:09;7.87;;;3.83;;
10090;SDS011;5084;51.386;6.778;2024-02-21T14:27:35;6.47;;;3.00;;
10090;SDS011;5084;51.386;6.778;2024-02-21T14:30:02;6.40;;;2.73;;
10090;SDS011;5084;51.386;6.778;2024-02-21T14:32:28;6.00;;;3.00;;
10090;SDS011;5084;51.386;6.778;2024-02-21T14:34:54;5.40;;;3.40;;
10090;SDS011;5084;51.386;6.778;2024-02-21T14:37:20;7.07;;;3.20;;
10090;SDS011;5084;51.386;6.778;2024-02-21T14:39:46;5.70;;;3.50;;
10090;SDS011;5084;51.386;6.778;2024-02-21T14:42:12;5.43;;;3.20;;
10090;SDS011;5084;51.386;6.778;2024-02-21T14:44:38;7.87;;;3.60;;
10090;SDS011;5084;51.386;6.778;2024-02-21T14:47:05;7.00;;;2.97;;
10090;SDS011;5084;51.386;6.778;2024-02-21T14:49:32;6.97;;;2.90;;
10090;SDS011;5084;51.386;6.778;2024-02-21T14:51:58;6.57;;;3.10;;
10090;SDS011;5084;51.386;6.778;2024-02-21T14:54:24;6.57;;;3.00;;
10090;SDS011;5084;51.386;6.778;2024-02-21T14:56:50;4.60;;;3.30;;
10090;SDS011;5084;51.386;6.778;2024-02-21T14:59:16;6.20;;;3.27;;